Time;durP1;ratioP1;P1;durP2;ratioP2;P2;SDS_P1;SDS_P2;PMS_P1;PMS_P2;Temp;Humidity;BMP_temperature;BMP_pressure;BME280_temperature;BME280_humidity;BME280_pressure;Samples;Min_cycle;Max_cycle;Signal;HPM_P1;HPM_P2
2022/01/23 00:00:55;;;;;;;11.95;9.68;;;;;;;;;;5043665;28;20037;-58
2022/01/23 00:03:20;;;;;;;13.63;9.95;;;;;;;;;;5069879;28;20097;-58
2022/01/23 00:05:47;;;;;;;11.88;10.63;;;;;;;;;;5066884;28;20419;-58
2022/01/23 00:08:14;;;;;;;17.80;9.70;;;;;;;;;;5050684;28;20025;-58
2022/01/23 00:10:40;;;;;;;12.05;8.75;;;;;;;;;;5048803;28;20119;-59
2022/01/23 00:13:33;;;;;;;11.20;9.23;;;;;;;;;;5064143;28;20012;-58
2022/01/23 00:18:35;;;;;;;25.13;11.40;;;;;;;;;;5070818;28;20035;-58
2022/01/23 00:21:00;;;;;;;13.90;10.55;;;;;;;;;;5068600;28;20044;-58
2022/01/23 00:30:19;;;;;;;12.05;9.35;;;;;;;;;;5070118;28;20086;-58
2022/01/23 00:31:40;;;;;;;21.80;12.13;;;;;;;;;;5048446;28;20040;-58
2022/01/23 00:34:06;;;;;;;14.57;11.02;;;;;;;;;;5069855;28;20061;-58
2022/01/23 00:36:31;;;;;;;17.88;15.15;;;;;;;;;;5062572;28;20040;-58
2022/01/23 00:38:57;;;;;;;19.73;14.32;;;;;;;;;;5049644;28;20385;-58
2022/01/23 00:41:22;;;;;;;13.55;11.52;;;;;;;;;;5065445;28;20040;-58
2022/01/23 00:43:49;;;;;;;14.18;10.52;;;;;;;;;;5049918;28;20021;-58
2022/01/23 00:49:02;;;;;;;14.93;9.93;;;;;;;;;;5030312;28;20026;-58
2022/01/23 00:51:28;;;;;;;19.73;12.73;;;;;;;;;;5042914;28;20098;-58
2022/01/23 00:53:54;;;;;;;15.25;11.63;;;;;;;;;;5049649;28;20386;-57
2022/01/23 00:56:19;;;;;;;14.75;11.90;;;;;;;;;;5065525;28;20048;-58
2022/01/23 00:58:44;;;;;;;15.52;12.07;;;;;;;;;;5056013;28;20028;-58
2022/01/23 01:01:10;;;;;;;18.30;14.07;;;;;;;;;;5068407;28;20036;-58
2022/01/23 01:03:35;;;;;;;20.13;12.75;;;;;;;;;;5069902;28;20020;-58
2022/01/23 01:06:00;;;;;;;20.10;12.43;;;;;;;;;;5049739;28;20099;-58
2022/01/23 01:08:25;;;;;;;19.97;13.37;;;;;;;;;;5069345;28;20446;-58
2022/01/23 01:11:10;;;;;;;20.17;13.45;;;;;;;;;;5066867;28;20450;-57
2022/01/23 01:14:07;;;;;;;22.10;13.07;;;;;;;;;;5050095;28;20146;-58
2022/01/23 01:35:27;;;;;;;16.17;12.23;;;;;;;;;;5054099;28;20124;-58
2022/01/23 01:37:53;;;;;;;16.25;12.52;;;;;;;;;;5061234;28;20083;-58
2022/01/23 01:40:20;;;;;;;13.32;11.45;;;;;;;;;;5051621;28;20032;-58
2022/01/23 01:42:45;;;;;;;19.48;14.00;;;;;;;;;;5052436;28;20139;-59
2022/01/23 01:45:11;;;;;;;14.57;12.30;;;;;;;;;;5056107;28;20065;-58
2022/01/23 01:47:36;;;;;;;17.23;13.48;;;;;;;;;;5062533;28;20446;-59
2022/01/23 01:50:02;;;;;;;15.45;11.43;;;;;;;;;;5050993;28;20437;-58
2022/01/23 01:52:27;;;;;;;16.70;12.23;;;;;;;;;;5052690;28;20017;-59
2022/01/23 01:55:00;;;;;;;14.25;11.85;;;;;;;;;;5051258;28;20044;-58
2022/01/23 01:57:31;;;;;;;15.00;12.00;;;;;;;;;;5063424;28;20028;-58
2022/01/23 02:10:33;;;;;;;17.95;13.20;;;;;;;;;;5070655;28;20090;-58
2022/01/23 02:13:06;;;;;;;19.63;14.35;;;;;;;;;;5067532;28;20033;-59
2022/01/23 02:16:01;;;;;;;15.35;12.60;;;;;;;;;;5051122;28;20123;-59
2022/01/23 02:24:02;;;;;;;19.83;12.63;;;;;;;;;;5050846;28;20023;-59
2022/01/23 02:56:44;;;;;;;30.08;16.35;;;;;;;;;;5071653;28;20021;-57
2022/01/23 02:59:20;;;;;;;20.98;14.25;;;;;;;;;;5050027;28;20568;-57
2022/01/23 03:04:36;;;;;;;;;;;;;;;;;;5021537;28;20056;-58
2022/01/23 03:15:01;;;;;;;16.25;12.80;;;;;;;;;;5069680;28;20082;-58
2022/01/23 03:31:24;;;;;;;17.75;13.77;;;;;;;;;;5034618;28;20044;-59
2022/01/23 03:33:49;;;;;;;16.10;11.48;;;;;;;;;;5049494;28;20044;-58
2022/01/23 03:36:15;;;;;;;14.77;12.18;;;;;;;;;;5050755;28;20431;-58
2022/01/23 03:38:40;;;;;;;19.80;13.38;;;;;;;;;;5062561;28;20013;-58
2022/01/23 03:41:05;;;;;;;19.63;13.40;;;;;;;;;;5062667;28;20019;-58
2022/01/23 03:43:34;;;;;;;16.10;13.70;;;;;;;;;;5049098;28;20427;-58
2022/01/23 03:46:21;;;;;;;;;;;;;;;;;;5050751;28;20467;-58
2022/01/23 03:51:10;;;;;;;14.80;13.02;;;;;;;;;;5070620;28;20380;-58
2022/01/23 03:53:36;;;;;;;14.77;11.55;;;;;;;;;;5069256;28;20052;-58
2022/01/23 03:56:01;;;;;;;16.25;13.60;;;;;;;;;;5070660;28;20051;-58
2022/01/23 03:58:26;;;;;;;14.23;12.05;;;;;;;;;;5058874;28;20421;-58
2022/01/23 04:00:51;;;;;;;18.33;12.55;;;;;;;;;;5048557;28;20064;-58
2022/01/23 04:03:19;;;;;;;18.10;13.40;;;;;;;;;;5050587;28;20021;-58
2022/01/23 04:05:44;;;;;;;25.50;12.48;;;;;;;;;;5048665;28;20029;-58
2022/01/23 04:08:09;;;;;;;19.58;12.55;;;;;;;;;;5058258;28;20036;-57
2022/01/23 04:10:35;;;;;;;17.23;11.57;;;;;;;;;;5068970;28;20033;-57
2022/01/23 04:13:14;;;;;;;14.23;12.73;;;;;;;;;;5069799;28;20023;-57
2022/01/23 04:15:46;;;;;;;16.88;12.07;;;;;;;;;;5061307;28;20040;-57
2022/01/23 04:32:23;;;;;;;17.35;12.70;;;;;;;;;;5027372;28;20496;-58
2022/01/23 04:45:40;;;;;;;22.95;15.13;;;;;;;;;;5055703;28;20048;-57
2022/01/23 05:04:22;;;;;;;20.25;13.95;;;;;;;;;;5051957;28;20048;-59
2022/01/23 05:06:59;;;;;;;22.50;14.43;;;;;;;;;;5053775;28;20048;-58
2022/01/23 05:09:25;;;;;;;22.23;17.48;;;;;;;;;;5052047;28;20029;-58
2022/01/23 05:11:54;;;;;;;25.48;16.75;;;;;;;;;;5053231;28;20021;-58
2022/01/23 05:14:26;;;;;;;;;;;;;;;;;;5059083;28;20116;-58
2022/01/23 05:16:51;;;;;;;17.65;14.18;;;;;;;;;;5073524;28;19908;-58
2022/01/23 05:19:16;;;;;;;20.10;12.00;;;;;;;;;;5066445;28;20495;-58
2022/01/23 05:24:13;;;;;;;15.65;12.05;;;;;;;;;;5052047;28;20158;-58
2022/01/23 05:26:44;;;;;;;22.25;13.73;;;;;;;;;;5052998;28;20563;-58
2022/01/23 05:29:09;;;;;;;20.73;13.07;;;;;;;;;;5052021;28;20037;-58
2022/01/23 05:31:34;;;;;;;18.25;13.50;;;;;;;;;;5054701;28;20032;-58
2022/01/23 05:33:59;;;;;;;18.23;13.13;;;;;;;;;;5065905;28;20523;-58
2022/01/23 05:36:25;;;;;;;18.80;16.10;;;;;;;;;;5053228;28;20021;-58
2022/01/23 05:38:50;;;;;;;23.38;16.65;;;;;;;;;;5051751;28;20454;-57
2022/01/23 05:41:15;;;;;;;24.80;16.00;;;;;;;;;;5052298;28;20135;-58
2022/01/23 05:43:40;;;;;;;21.13;15.70;;;;;;;;;;5061890;28;20451;-54
2022/01/23 05:46:05;;;;;;;30.00;19.08;;;;;;;;;;5052321;28;20593;-56
2022/01/23 05:48:31;;;;;;;25.13;16.70;;;;;;;;;;5050790;28;20017;-54
2022/01/23 05:50:56;;;;;;;28.13;17.35;;;;;;;;;;5052331;28;20432;-54
2022/01/23 05:53:21;;;;;;;23.50;15.50;;;;;;;;;;5069530;28;20040;-54
2022/01/23 05:55:46;;;;;;;31.00;17.40;;;;;;;;;;5056904;28;20872;-54
2022/01/23 05:58:11;;;;;;;23.30;16.90;;;;;;;;;;5052528;28;20443;-54
2022/01/23 06:00:36;;;;;;;27.47;17.77;;;;;;;;;;5051119;28;20599;-54
2022/01/23 06:03:02;;;;;;;26.93;17.40;;;;;;;;;;5066746;28;21004;-54
2022/01/23 06:05:27;;;;;;;29.07;17.83;;;;;;;;;;5069385;28;20489;-53
2022/01/23 06:07:52;;;;;;;25.38;16.13;;;;;;;;;;5072027;28;20017;-54
2022/01/23 06:10:22;;;;;;;29.23;17.97;;;;;;;;;;5052448;28;20132;-54
2022/01/23 06:12:48;;;;;;;30.48;19.17;;;;;;;;;;5064731;28;20521;-53
2022/01/23 06:15:13;;;;;;;31.20;18.58;;;;;;;;;;5067578;28;20397;-55
2022/01/23 06:17:38;;;;;;;28.38;18.15;;;;;;;;;;5060082;28;20029;-55
2022/01/23 06:20:06;;;;;;;24.88;16.58;;;;;;;;;;5048197;28;20041;-54
2022/01/23 06:22:31;;;;;;;38.28;19.35;;;;;;;;;;5060373;28;20025;-54
2022/01/23 06:24:57;;;;;;;34.77;20.83;;;;;;;;;;5056400;28;20033;-54
2022/01/23 06:27:22;;;;;;;27.47;17.83;;;;;;;;;;5051133;28;20852;-54
2022/01/23 06:29:47;;;;;;;35.25;20.35;;;;;;;;;;5054790;28;20475;-54
2022/01/23 06:32:13;;;;;;;38.00;20.40;;;;;;;;;;5061823;28;20817;-54
2022/01/23 06:34:38;;;;;;;32.60;19.20;;;;;;;;;;5049773;28;20033;-54
2022/01/23 06:37:03;;;;;;;34.75;19.25;;;;;;;;;;5050726;28;20021;-54
2022/01/23 06:39:29;;;;;;;32.03;17.92;;;;;;;;;;5048683;28;20126;-53
2022/01/23 06:41:54;;;;;;;29.45;18.88;;;;;;;;;;5055980;28;20163;-53
2022/01/23 06:44:19;;;;;;;27.98;19.52;;;;;;;;;;5060828;28;20040;-53
2022/01/23 06:46:44;;;;;;;33.60;20.52;;;;;;;;;;5051410;28;20020;-54
2022/01/23 06:49:10;;;;;;;28.45;17.10;;;;;;;;;;5048790;28;20040;-54
2022/01/23 06:51:35;;;;;;;26.73;17.88;;;;;;;;;;5051538;28;20027;-54
2022/01/23 06:54:01;;;;;;;29.70;15.77;;;;;;;;;;5048384;28;20123;-54
2022/01/23 06:56:26;;;;;;;34.73;19.33;;;;;;;;;;5050164;28;20029;-54
2022/01/23 06:58:51;;;;;;;30.80;17.85;;;;;;;;;;5049601;28;20534;-54
2022/01/23 07:01:16;;;;;;;33.63;19.65;;;;;;;;;;5051007;28;20032;-54
2022/01/23 07:03:41;;;;;;;34.65;19.27;;;;;;;;;;5067816;28;20073;-54
2022/01/23 07:06:07;;;;;;;38.80;20.80;;;;;;;;;;5064475;28;20016;-53
2022/01/23 07:08:32;;;;;;;42.37;21.07;;;;;;;;;;5067956;28;20016;-54
2022/01/23 07:10:57;;;;;;;32.90;20.63;;;;;;;;;;5048881;28;20451;-54
2022/01/23 07:13:22;;;;;;;40.30;23.40;;;;;;;;;;5051139;28;20450;-54
2022/01/23 07:15:48;;;;;;;42.63;23.13;;;;;;;;;;5049333;28;20041;-53
2022/01/23 07:18:15;;;;;;;33.35;20.50;;;;;;;;;;5049088;28;20326;-54
2022/01/23 07:20:40;;;;;;;43.60;22.75;;;;;;;;;;5048259;28;20048;-54
2022/01/23 07:23:05;;;;;;;41.20;22.23;;;;;;;;;;5050034;28;20017;-54
2022/01/23 07:25:31;;;;;;;38.85;19.05;;;;;;;;;;5054876;28;20089;-54
2022/01/23 07:27:58;;;;;;;36.05;20.60;;;;;;;;;;5054742;28;20468;-54
2022/01/23 07:30:36;;;;;;;31.25;19.25;;;;;;;;;;5049086;28;20448;-54
2022/01/23 07:33:01;;;;;;;38.58;21.80;;;;;;;;;;5049219;28;20048;-54
2022/01/23 07:35:27;;;;;;;43.45;22.33;;;;;;;;;;5049095;28;20052;-55
2022/01/23 07:37:52;;;;;;;39.37;19.87;;;;;;;;;;5050163;28;20538;-54
2022/01/23 07:40:19;;;;;;;28.97;18.97;;;;;;;;;;5047829;28;20478;-54
2022/01/23 07:42:44;;;;;;;35.92;19.08;;;;;;;;;;5067763;28;20530;-53
2022/01/23 07:45:09;;;;;;;42.87;24.00;;;;;;;;;;5048342;28;20120;-54
2022/01/23 07:47:34;;;;;;;44.95;24.48;;;;;;;;;;5048007;28;20443;-54
2022/01/23 07:50:01;;;;;;;56.58;28.65;;;;;;;;;;5048799;28;20624;-53
2022/01/23 07:52:30;;;;;;;56.03;24.73;;;;;;;;;;5070037;28;20021;-54
2022/01/23 07:54:55;;;;;;;55.55;28.02;;;;;;;;;;5048558;28;20500;-54
2022/01/23 07:57:20;;;;;;;56.05;25.83;;;;;;;;;;5050063;28;20024;-54
2022/01/23 07:59:45;;;;;;;48.00;24.53;;;;;;;;;;5048457;28;20068;-54
2022/01/23 08:02:10;;;;;;;44.17;22.60;;;;;;;;;;5048886;28;20431;-54
2022/01/23 08:04:36;;;;;;;52.53;27.50;;;;;;;;;;5048227;28;20094;-54
2022/01/23 08:07:10;;;;;;;55.13;26.17;;;;;;;;;;5050328;28;20383;-54
2022/01/23 08:09:36;;;;;;;50.20;25.55;;;;;;;;;;5047166;28;20469;-53
2022/01/23 08:12:01;;;;;;;59.33;26.02;;;;;;;;;;5049179;28;20021;-54
2022/01/23 08:14:26;;;;;;;60.08;27.70;;;;;;;;;;5045527;28;20036;-54
2022/01/23 08:16:51;;;;;;;65.40;28.00;;;;;;;;;;5047503;28;20017;-54
2022/01/23 08:19:16;;;;;;;67.63;27.97;;;;;;;;;;5046542;28;20471;-54
2022/01/23 08:21:42;;;;;;;62.92;28.02;;;;;;;;;;5047965;28;20028;-53
2022/01/23 08:24:07;;;;;;;64.70;28.35;;;;;;;;;;5043180;28;20480;-54
2022/01/23 08:26:32;;;;;;;64.05;30.20;;;;;;;;;;5047922;28;20023;-54
2022/01/23 08:28:57;;;;;;;63.20;28.13;;;;;;;;;;5044931;28;20052;-53
2022/01/23 08:31:22;;;;;;;75.93;29.75;;;;;;;;;;5049159;28;20457;-54
2022/01/23 08:33:48;;;;;;;78.95;35.85;;;;;;;;;;5051571;28;20117;-52
2022/01/23 08:36:13;;;;;;;72.30;34.58;;;;;;;;;;5054024;28;20017;-54
2022/01/23 08:38:38;;;;;;;79.40;34.22;;;;;;;;;;5050493;28;20027;-54
2022/01/23 08:43:49;;;;;;;66.78;33.00;;;;;;;;;;5020317;28;20448;-54
2022/01/23 08:46:15;;;;;;;76.63;35.90;;;;;;;;;;5054283;28;20021;-53
2022/01/23 08:48:41;;;;;;;86.55;42.08;;;;;;;;;;5051650;28;20079;-54
2022/01/23 08:51:07;;;;;;;78.05;38.05;;;;;;;;;;5069771;28;20434;-54
2022/01/23 08:53:32;;;;;;;87.85;39.30;;;;;;;;;;5053373;28;20025;-54
2022/01/23 08:55:57;;;;;;;82.43;39.22;;;;;;;;;;5052080;28;20013;-54
2022/01/23 08:58:22;;;;;;;92.77;39.43;;;;;;;;;;5051899;28;20031;-55
2022/01/23 09:00:47;;;;;;;76.95;38.75;;;;;;;;;;5053826;28;22286;-54
2022/01/23 09:03:12;;;;;;;81.38;40.00;;;;;;;;;;5046051;28;20110;-54
2022/01/23 09:05:38;;;;;;;76.68;41.15;;;;;;;;;;5045470;28;20033;-54
2022/01/23 09:08:03;;;;;;;76.83;39.33;;;;;;;;;;5047629;28;20060;-54
2022/01/23 09:10:39;;;;;;;73.45;41.22;;;;;;;;;;5051593;28;20106;-54
2022/01/23 09:13:08;;;;;;;74.40;40.35;;;;;;;;;;5044878;28;20441;-52
2022/01/23 09:15:34;;;;;;;89.70;44.20;;;;;;;;;;5043645;28;20500;-55
2022/01/23 09:17:59;;;;;;;76.90;41.83;;;;;;;;;;5052695;28;20112;-55
2022/01/23 09:20:24;;;;;;;66.10;38.70;;;;;;;;;;5050689;28;20348;-54
2022/01/23 09:22:49;;;;;;;72.55;38.08;;;;;;;;;;5052037;28;20388;-53
2022/01/23 09:25:14;;;;;;;77.63;43.13;;;;;;;;;;5054725;28;20068;-54
2022/01/23 09:27:40;;;;;;;76.35;41.40;;;;;;;;;;5052040;28;20475;-54
2022/01/23 09:30:16;;;;;;;78.50;43.15;;;;;;;;;;5048549;28;20048;-54
2022/01/23 09:32:43;;;;;;;71.63;39.30;;;;;;;;;;5047447;28;20102;-57
2022/01/23 09:35:08;;;;;;;59.97;37.90;;;;;;;;;;5048478;28;20556;-55
2022/01/23 09:37:33;;;;;;;68.75;40.85;;;;;;;;;;5062339;28;20020;-55
2022/01/23 09:40:00;;;;;;;64.28;36.35;;;;;;;;;;5049532;28;20127;-55
2022/01/23 09:42:48;;;;;;;60.95;33.13;;;;;;;;;;5051085;28;20021;-55
2022/01/23 09:45:14;;;;;;;80.80;38.53;;;;;;;;;;5047321;28;20041;-54
2022/01/23 09:47:39;;;;;;;55.10;35.72;;;;;;;;;;5066108;28;20601;-55
2022/01/23 09:50:07;;;;;;;60.88;35.67;;;;;;;;;;5063927;28;20063;-54
2022/01/23 09:52:34;;;;;;;55.30;37.70;;;;;;;;;;5072256;28;20022;-54
2022/01/23 09:55:07;;;;;;;57.55;34.92;;;;;;;;;;5066253;28;20033;-55
2022/01/23 09:57:33;;;;;;;63.88;36.40;;;;;;;;;;5052396;28;20476;-55
2022/01/23 09:59:59;;;;;;;56.92;33.60;;;;;;;;;;5049930;28;20045;-54
2022/01/23 10:02:24;;;;;;;62.05;36.25;;;;;;;;;;5052208;28;20048;-54
2022/01/23 10:04:50;;;;;;;58.10;34.40;;;;;;;;;;5056994;28;20484;-54
2022/01/23 10:07:16;;;;;;;52.35;33.78;;;;;;;;;;5033815;28;20608;-55
2022/01/23 10:09:41;;;;;;;62.83;33.78;;;;;;;;;;5038617;28;20124;-54
2022/01/23 10:12:08;;;;;;;64.53;41.67;;;;;;;;;;5051351;28;20047;-55
2022/01/23 10:14:34;;;;;;;54.15;34.60;;;;;;;;;;5051254;28;20098;-55
2022/01/23 10:16:59;;;;;;;67.72;35.22;;;;;;;;;;5071302;28;20036;-55
2022/01/23 10:19:25;;;;;;;57.58;38.25;;;;;;;;;;5054804;28;20032;-55
2022/01/23 10:21:50;;;;;;;56.85;39.10;;;;;;;;;;5051464;28;20036;-55
2022/01/23 10:24:15;;;;;;;54.90;34.07;;;;;;;;;;5050490;28;20029;-55
2022/01/23 10:26:44;;;;;;;44.87;31.73;;;;;;;;;;5051734;28;20029;-55
2022/01/23 10:29:21;;;;;;;54.72;35.95;;;;;;;;;;5049544;28;21018;-55
2022/01/23 10:32:05;;;;;;;50.13;36.40;;;;;;;;;;5051892;28;20013;-55
2022/01/23 10:34:39;;;;;;;51.47;34.00;;;;;;;;;;5050312;28;20041;-55
2022/01/23 10:37:04;;;;;;;60.38;39.70;;;;;;;;;;5051188;28;20017;-55
2022/01/23 10:39:43;;;;;;;60.15;37.35;;;;;;;;;;5049973;28;20652;-56
2022/01/23 10:47:57;;;;;;;55.55;35.58;;;;;;;;;;5055198;28;20089;-54
2022/01/23 10:50:23;;;;;;;51.70;33.03;;;;;;;;;;5049666;28;20063;-54
2022/01/23 10:52:50;;;;;;;53.88;35.78;;;;;;;;;;5050797;28;20104;-55
2022/01/23 10:55:22;;;;;;;54.97;36.42;;;;;;;;;;5049047;28;20037;-55
2022/01/23 10:57:50;;;;;;;53.47;33.53;;;;;;;;;;5051259;28;20036;-54
2022/01/23 11:00:25;;;;;;;45.03;28.65;;;;;;;;;;5048871;28;20071;-55
2022/01/23 11:02:50;;;;;;;48.15;34.90;;;;;;;;;;5051295;28;20021;-54
2022/01/23 11:05:19;;;;;;;48.17;33.83;;;;;;;;;;5049554;28;20095;-55
2022/01/23 11:07:45;;;;;;;45.45;32.83;;;;;;;;;;5050248;28;20020;-55
2022/01/23 11:10:15;;;;;;;55.10;37.20;;;;;;;;;;5057333;28;20049;-55
2022/01/23 11:18:33;;;;;;;47.22;31.45;;;;;;;;;;5067529;28;20650;-53
2022/01/23 11:20:58;;;;;;;47.03;33.25;;;;;;;;;;5045702;28;20095;-53
2022/01/23 11:23:27;;;;;;;45.33;30.65;;;;;;;;;;5047608;28;20025;-54
2022/01/23 11:25:52;;;;;;;47.25;32.88;;;;;;;;;;5045161;28;20044;-54
2022/01/23 11:28:17;;;;;;;47.50;32.97;;;;;;;;;;5046584;28;20014;-53
2022/01/23 11:30:44;;;;;;;45.70;31.43;;;;;;;;;;5043461;28;20079;-54
2022/01/23 11:33:11;;;;;;;53.08;32.15;;;;;;;;;;5046494;28;20041;-53
2022/01/23 11:35:36;;;;;;;42.45;32.83;;;;;;;;;;5040670;28;20148;-54
2022/01/23 11:38:04;;;;;;;48.00;34.83;;;;;;;;;;5045995;28;20028;-54
2022/01/23 11:53:56;;;;;;;56.78;33.47;;;;;;;;;;5037189;28;20120;-54
2022/01/23 11:56:31;;;;;;;50.60;34.38;;;;;;;;;;5042416;28;20018;-53
2022/01/23 11:59:09;;;;;;;42.75;28.80;;;;;;;;;;5029948;28;20079;-54
2022/01/23 12:01:34;;;;;;;41.08;28.35;;;;;;;;;;5030517;28;20484;-54
2022/01/23 12:04:09;;;;;;;44.65;29.65;;;;;;;;;;5030154;28;20026;-54
2022/01/23 12:06:35;;;;;;;38.80;26.20;;;;;;;;;;5030266;28;20026;-54
2022/01/23 12:09:09;;;;;;;43.35;27.52;;;;;;;;;;5031591;28;20404;-54
2022/01/23 12:11:46;;;;;;;44.10;28.85;;;;;;;;;;5029753;28;20100;-54
2022/01/23 12:16:24;;;;;;;41.33;27.42;;;;;;;;;;5034472;28;20061;-54
2022/01/23 12:17:05;;;;;;;37.50;27.17;;;;;;;;;;5036172;28;20045;-52
2022/01/23 12:19:31;;;;;;;39.67;30.20;;;;;;;;;;5034722;28;20495;-54
2022/01/23 12:21:59;;;;;;;45.72;31.95;;;;;;;;;;5036411;28;20546;-54
2022/01/23 12:24:25;;;;;;;39.67;26.58;;;;;;;;;;5030410;28;20038;-54
2022/01/23 12:26:52;;;;;;;38.40;27.35;;;;;;;;;;5034839;28;20100;-53
2022/01/23 12:29:25;;;;;;;38.03;25.92;;;;;;;;;;5028720;28;20132;-53
2022/01/23 12:32:10;;;;;;;39.08;25.98;;;;;;;;;;5015603;28;20481;-53
2022/01/23 12:34:48;;;;;;;37.55;24.25;;;;;;;;;;5023611;28;20037;-54
2022/01/23 12:37:13;;;;;;;32.45;25.60;;;;;;;;;;5020842;28;20045;-53
2022/01/23 12:39:38;;;;;;;40.53;30.50;;;;;;;;;;5015624;28;20081;-54
2022/01/23 12:42:05;;;;;;;36.77;26.43;;;;;;;;;;5020548;28;20437;-54
2022/01/23 12:44:35;;;;;;;40.10;27.23;;;;;;;;;;5019382;28;20042;-55
2022/01/23 12:47:04;;;;;;;34.28;24.25;;;;;;;;;;5022354;28;20024;-53
2022/01/23 12:49:30;;;;;;;35.30;21.92;;;;;;;;;;5021053;28;20096;-52
2022/01/23 12:52:11;;;;;;;31.25;23.30;;;;;;;;;;5032273;28;20092;-53
2022/01/23 12:54:51;;;;;;;32.50;23.85;;;;;;;;;;5018163;28;20396;-54
2022/01/23 12:57:21;;;;;;;33.90;25.50;;;;;;;;;;5018770;28;20116;-53
2022/01/23 12:59:52;;;;;;;42.22;29.35;;;;;;;;;;5011329;28;20077;-53
2022/01/23 13:02:19;;;;;;;30.63;23.00;;;;;;;;;;5012294;28;20079;-53
2022/01/23 13:04:49;;;;;;;32.58;24.95;;;;;;;;;;5017152;28;20045;-53
2022/01/23 13:07:21;;;;;;;36.58;26.02;;;;;;;;;;5012387;28;20061;-53
2022/01/23 13:10:02;;;;;;;29.75;22.88;;;;;;;;;;5022043;28;20041;-54
2022/01/23 13:30:54;;;;;;;34.85;25.17;;;;;;;;;;5029374;28;20507;-53
2022/01/23 13:33:21;;;;;;;18.93;14.13;;;;;;;;;;5027625;28;20115;-54
2022/01/23 13:35:51;;;;;;;9.63;8.45;;;;;;;;;;5019338;28;20473;-53
2022/01/23 13:38:18;;;;;;;16.05;12.35;;;;;;;;;;5020143;28;20013;-54
2022/01/23 13:40:44;;;;;;;32.35;25.10;;;;;;;;;;5017638;28;20030;-53
2022/01/23 13:59:26;;;;;;;24.15;16.75;;;;;;;;;;5038901;28;20079;-53
2022/01/23 14:02:38;;;;;;;31.58;22.63;;;;;;;;;;5040590;28;20013;-52
2022/01/23 14:04:39;;;;;;;32.80;22.77;;;;;;;;;;5033159;28;20038;-53
2022/01/23 14:07:05;;;;;;;38.80;26.10;;;;;;;;;;5050444;28;20021;-54
2022/01/23 14:09:36;;;;;;;32.55;24.25;;;;;;;;;;5040249;28;20111;-54
2022/01/23 14:12:06;;;;;;;31.30;23.98;;;;;;;;;;5037773;28;20026;-53
2022/01/23 14:14:31;;;;;;;29.75;20.13;;;;;;;;;;5038450;28;20041;-53
2022/01/23 14:17:09;;;;;;;30.77;22.15;;;;;;;;;;5039930;28;20037;-54
2022/01/23 14:19:34;;;;;;;20.38;12.20;;;;;;;;;;5039323;28;21404;-52
2022/01/23 14:22:00;;;;;;;12.50;6.20;;;;;;;;;;5038375;28;20199;-54
2022/01/23 14:24:25;;;;;;;13.02;8.73;;;;;;;;;;5043468;28;20029;-52
2022/01/23 14:26:56;;;;;;;20.88;15.18;;;;;;;;;;5050255;28;20563;-53
2022/01/23 14:29:22;;;;;;;15.35;9.35;;;;;;;;;;5043137;28;20056;-53
2022/01/23 14:32:02;;;;;;;10.50;7.55;;;;;;;;;;5038593;28;20032;-52
2022/01/23 14:34:27;;;;;;;10.38;7.68;;;;;;;;;;5036449;28;20063;-53
2022/01/23 14:36:58;;;;;;;10.00;8.93;;;;;;;;;;5039981;28;20460;-52
2022/01/23 14:39:24;;;;;;;17.30;11.68;;;;;;;;;;5038678;28;20033;-53
2022/01/23 14:41:49;;;;;;;12.43;8.70;;;;;;;;;;5039743;28;20013;-53
2022/01/23 14:44:18;;;;;;;13.52;9.52;;;;;;;;;;5039387;28;20534;-52
2022/01/23 14:46:47;;;;;;;12.25;10.95;;;;;;;;;;5050776;28;20021;-52
2022/01/23 14:49:21;;;;;;;14.00;10.93;;;;;;;;;;5036588;28;20097;-53
2022/01/23 14:51:46;;;;;;;12.10;9.35;;;;;;;;;;5030655;28;20026;-53
2022/01/23 14:54:11;;;;;;;14.43;10.30;;;;;;;;;;5029412;28;20033;-54
2022/01/23 14:56:39;;;;;;;13.05;9.13;;;;;;;;;;5030043;28;20103;-54
2022/01/23 14:59:08;;;;;;;13.48;10.20;;;;;;;;;;5032162;28;20404;-54
2022/01/23 15:01:33;;;;;;;;;;;;;;;;;;5039957;28;20028;-54
2022/01/23 15:04:01;;;;;;;11.63;8.75;;;;;;;;;;5038633;28;19913;-54
2022/01/23 15:06:26;;;;;;;15.43;11.30;;;;;;;;;;5043151;28;20013;-54
2022/01/23 15:08:51;;;;;;;10.88;8.35;;;;;;;;;;5038658;28;20503;-53
2022/01/23 15:11:16;;;;;;;12.98;10.40;;;;;;;;;;5040032;28;20100;-54
2022/01/23 15:13:41;;;;;;;11.60;8.73;;;;;;;;;;5048480;28;20020;-54
2022/01/23 15:16:06;;;;;;;12.13;10.23;;;;;;;;;;5032143;28;20514;-54
2022/01/23 15:18:34;;;;;;;14.33;9.03;;;;;;;;;;5034572;28;20028;-54
2022/01/23 15:20:59;;;;;;;16.25;13.00;;;;;;;;;;5049775;28;20419;-54
2022/01/23 15:23:24;;;;;;;18.02;10.57;;;;;;;;;;5049355;28;20108;-54
2022/01/23 15:25:49;;;;;;;15.27;11.60;;;;;;;;;;5034354;28;20064;-54
2022/01/23 15:28:15;;;;;;;20.07;11.97;;;;;;;;;;5031247;28;20491;-54
2022/01/23 15:30:42;;;;;;;22.98;12.98;;;;;;;;;;5046421;28;20049;-54
2022/01/23 15:33:07;;;;;;;15.43;12.07;;;;;;;;;;5044365;28;20107;-54
2022/01/23 15:35:33;;;;;;;19.42;12.15;;;;;;;;;;5048559;28;20123;-54
2022/01/23 15:37:58;;;;;;;19.33;13.45;;;;;;;;;;5044857;28;20112;-54
2022/01/23 15:40:23;;;;;;;20.90;14.50;;;;;;;;;;5048125;28;20033;-54
2022/01/23 15:42:50;;;;;;;16.13;13.05;;;;;;;;;;5049578;28;20454;-54
2022/01/23 15:45:17;;;;;;;16.42;13.32;;;;;;;;;;5031357;28;20448;-54
2022/01/23 15:47:42;;;;;;;23.13;15.55;;;;;;;;;;5035445;28;20365;-54
2022/01/23 15:50:07;;;;;;;22.98;12.90;;;;;;;;;;5048065;28;20094;-54
2022/01/23 15:52:33;;;;;;;21.33;14.75;;;;;;;;;;5039017;28;20040;-54
2022/01/23 15:54:58;;;;;;;15.95;11.32;;;;;;;;;;5046040;28;20044;-54
2022/01/23 15:57:24;;;;;;;19.02;14.38;;;;;;;;;;5048706;28;20078;-54
2022/01/23 15:59:50;;;;;;;21.20;16.67;;;;;;;;;;5047002;28;20033;-54
2022/01/23 16:02:15;;;;;;;17.75;14.30;;;;;;;;;;5043237;28;20593;-54
2022/01/23 16:04:40;;;;;;;17.55;14.13;;;;;;;;;;5034055;28;20505;-54
2022/01/23 16:07:12;;;;;;;20.08;14.35;;;;;;;;;;5037101;28;20087;-54
2022/01/23 16:09:37;;;;;;;20.65;16.15;;;;;;;;;;5039745;28;20139;-54
2022/01/23 16:12:03;;;;;;;24.50;16.23;;;;;;;;;;5040338;28;20025;-54
2022/01/23 16:14:28;;;;;;;28.48;17.73;;;;;;;;;;5040925;28;20064;-54
2022/01/23 16:16:53;;;;;;;22.10;16.40;;;;;;;;;;5041474;28;20049;-54
2022/01/23 16:19:19;;;;;;;24.05;17.77;;;;;;;;;;5040056;28;20855;-54
2022/01/23 16:21:45;;;;;;;22.77;16.42;;;;;;;;;;5042933;28;20028;-54
2022/01/23 16:24:10;;;;;;;24.08;16.95;;;;;;;;;;5038340;28;20480;-54
2022/01/23 16:26:36;;;;;;;23.90;15.13;;;;;;;;;;5041385;28;20027;-54
2022/01/23 16:29:01;;;;;;;19.67;15.90;;;;;;;;;;5041088;28;20068;-54
2022/01/23 16:31:26;;;;;;;19.67;13.67;;;;;;;;;;5040201;28;20995;-54
2022/01/23 16:33:51;;;;;;;21.02;16.02;;;;;;;;;;5039747;28;20455;-54
2022/01/23 16:36:16;;;;;;;22.83;15.88;;;;;;;;;;5041866;28;20013;-54
2022/01/23 16:38:42;;;;;;;22.42;13.25;;;;;;;;;;5038313;28;20020;-54
2022/01/23 16:41:07;;;;;;;18.17;14.90;;;;;;;;;;5039295;28;20372;-54
2022/01/23 16:43:32;;;;;;;17.17;14.87;;;;;;;;;;5040711;28;20047;-54
2022/01/23 16:45:58;;;;;;;16.88;11.57;;;;;;;;;;5042271;28;20963;-54
2022/01/23 16:48:24;;;;;;;17.83;12.77;;;;;;;;;;5040759;28;20018;-54
2022/01/23 16:50:49;;;;;;;13.63;10.90;;;;;;;;;;5040534;28;20057;-54
2022/01/23 16:53:14;;;;;;;18.73;13.38;;;;;;;;;;5041828;28;20018;-54
2022/01/23 16:55:40;;;;;;;19.50;14.57;;;;;;;;;;5038761;28;20123;-54
2022/01/23 16:58:06;;;;;;;19.58;13.93;;;;;;;;;;5042331;28;20079;-54
2022/01/23 17:00:31;;;;;;;18.70;15.75;;;;;;;;;;5038720;28;20041;-54
2022/01/23 17:02:59;;;;;;;20.67;15.68;;;;;;;;;;5041007;28;20369;-54
2022/01/23 17:05:24;;;;;;;19.60;14.52;;;;;;;;;;5037982;28;20073;-54
2022/01/23 17:07:49;;;;;;;19.85;14.10;;;;;;;;;;5040345;28;20412;-54
2022/01/23 17:10:14;;;;;;;19.10;14.98;;;;;;;;;;5038972;28;20036;-54
2022/01/23 17:12:39;;;;;;;23.15;16.58;;;;;;;;;;5040321;28;20070;-54
2022/01/23 17:15:05;;;;;;;20.35;16.13;;;;;;;;;;5039372;28;20484;-54
2022/01/23 17:17:31;;;;;;;25.05;14.52;;;;;;;;;;5040192;28;20489;-54
2022/01/23 17:19:56;;;;;;;21.50;15.23;;;;;;;;;;5039428;28;20022;-54
2022/01/23 17:22:21;;;;;;;25.17;16.20;;;;;;;;;;5038989;28;20388;-54
2022/01/23 17:24:46;;;;;;;23.77;15.95;;;;;;;;;;5036567;28;20456;-54
2022/01/23 17:27:12;;;;;;;23.65;15.95;;;;;;;;;;5041136;28;20028;-54
2022/01/23 17:29:37;;;;;;;19.17;14.63;;;;;;;;;;5037470;28;20040;-54
2022/01/23 17:32:03;;;;;;;18.48;13.63;;;;;;;;;;5040219;28;20040;-56
2022/01/23 17:34:28;;;;;;;18.67;15.80;;;;;;;;;;5036962;28;20550;-54
2022/01/23 17:36:53;;;;;;;18.27;15.30;;;;;;;;;;5039935;28;20071;-55
2022/01/23 17:39:20;;;;;;;21.00;16.63;;;;;;;;;;5038046;28;20638;-54
2022/01/23 17:41:45;;;;;;;28.58;18.73;;;;;;;;;;5039207;28;20021;-54
2022/01/23 17:44:10;;;;;;;14.13;12.73;;;;;;;;;;5039487;28;20095;-54
2022/01/23 17:46:37;;;;;;;19.35;11.63;;;;;;;;;;5042412;28;20021;-54
2022/01/23 17:49:05;;;;;;;15.20;11.48;;;;;;;;;;5037781;28;20104;-54